Brentwood, Tennessee
Current Conditions -  °F | °C
As of 6:53 PM on Friday 19 Dec 2014 (Local Time) from KBNA Reporting Station
Overcast Overcast  
Wind Chill: 33°   Ceiling: 14000
Heat Index: 38°   Visibility: 10mi
Dew Point: 28°   Wind: 7mph
Humidity: 68%   Direction: 20°NNE
Pressure: 30.25"   Gusts: NA
Location:  36.03°N, 86.79°W
Report Text: KBNA 200053Z 02006KT 10SM OVC140 03/M02 A3025 RMK AO2 SLP247 T00331022
Loading
Personal Weather Stations






























Interactive Weather Map New forecast layout! Learn more

10-Day Weather Forecast

Advertisements
Track Severe Weather on mobile